createdAt,value
2018-05-03T00:00:34.276Z,11.93
2018-05-03T00:01:34.277Z,11.94
2018-05-03T00:02:34.247Z,11.89
2018-05-03T00:03:34.255Z,11.80
2018-05-03T00:04:34.250Z,11.89
2018-05-03T00:05:34.252Z,11.94
2018-05-03T00:06:34.251Z,11.85
2018-05-03T00:07:34.231Z,11.83
2018-05-03T00:08:34.232Z,11.85
2018-05-03T00:09:34.224Z,11.85
2018-05-03T00:10:34.240Z,11.93
2018-05-03T00:11:34.212Z,11.93
2018-05-03T00:12:34.205Z,11.96
2018-05-03T00:13:34.227Z,11.97
2018-05-03T00:14:34.204Z,11.93
2018-05-03T00:15:34.205Z,11.90
2018-05-03T00:16:34.236Z,11.78
2018-05-03T00:17:34.192Z,11.90
2018-05-03T00:18:34.205Z,11.94
2018-05-03T00:19:34.185Z,11.90
2018-05-03T00:20:34.174Z,11.89
2018-05-03T00:21:34.174Z,11.90
2018-05-03T00:22:34.164Z,11.82
2018-05-03T00:23:34.159Z,11.93
2018-05-03T00:24:34.156Z,11.89
2018-05-03T00:25:34.148Z,11.93
2018-05-03T00:26:34.148Z,11.82
2018-05-03T00:27:34.140Z,11.80
2018-05-03T00:28:34.137Z,11.80
2018-05-03T00:29:34.135Z,11.83
2018-05-03T00:30:34.131Z,11.80
2018-05-03T00:31:34.126Z,11.83
2018-05-03T00:32:34.109Z,11.82
2018-05-03T00:33:34.118Z,11.78
2018-05-03T00:34:34.137Z,11.80
2018-05-03T00:35:34.104Z,11.77
2018-05-03T00:36:34.093Z,11.85
2018-05-03T00:37:34.094Z,11.82
2018-05-03T00:38:34.108Z,11.87
2018-05-03T00:39:34.093Z,11.83
2018-05-03T00:40:34.085Z,11.78
2018-05-03T00:41:34.079Z,11.75
2018-05-03T00:42:34.072Z,11.75
2018-05-03T00:43:34.072Z,11.80
2018-05-03T00:44:34.065Z,11.82
2018-05-03T00:45:34.048Z,11.77
2018-05-03T00:46:34.043Z,11.78
2018-05-03T00:47:34.050Z,11.74
2018-05-03T00:48:34.047Z,11.71
2018-05-03T00:49:34.037Z,11.74
2018-05-03T00:50:34.036Z,11.72
2018-05-03T00:51:34.025Z,11.68
2018-05-03T00:52:34.026Z,11.75
2018-05-03T00:53:34.025Z,11.67
2018-05-03T00:54:34.032Z,11.64
2018-05-03T00:55:34.008Z,11.59
2018-05-03T00:56:34.002Z,11.64
2018-05-03T00:57:33.996Z,11.65
2018-05-03T00:58:33.993Z,11.64
2018-05-03T00:59:33.986Z,11.65
2018-05-03T01:00:33.995Z,11.62
2018-05-03T01:01:34.029Z,11.57
2018-05-03T01:02:33.982Z,11.57
2018-05-03T01:03:33.971Z,11.57
2018-05-03T01:04:33.975Z,11.62
2018-05-03T01:05:33.962Z,11.59
2018-05-03T01:06:33.958Z,11.52
2018-05-03T01:07:33.948Z,11.49
2018-05-03T01:08:34.017Z,11.56
2018-05-03T01:09:33.943Z,11.54
2018-05-03T01:10:33.938Z,11.50
2018-05-03T01:11:33.940Z,11.44
2018-05-03T01:12:33.997Z,11.47
2018-05-03T01:13:33.920Z,11.43
2018-05-03T01:14:33.921Z,11.50
2018-05-03T01:15:33.913Z,11.44
2018-05-03T01:16:33.938Z,11.44
2018-05-03T01:17:33.910Z,11.41
2018-05-03T01:18:33.897Z,11.41
2018-05-03T01:19:33.895Z,11.31
2018-05-03T01:20:33.894Z,11.31
2018-05-03T01:21:33.885Z,11.24
2018-05-03T01:22:33.868Z,11.16
2018-05-03T01:23:33.881Z,11.10
2018-05-03T01:24:33.869Z,11.13
2018-05-03T01:25:33.871Z,11.14
2018-05-03T01:26:33.858Z,11.14
2018-05-03T01:27:33.847Z,11.13
2018-05-03T01:28:33.854Z,11.11
2018-05-03T01:29:33.847Z,11.03
2018-05-03T02:03:12.403Z,10.84
2018-05-03T02:04:12.362Z,10.89
2018-05-03T02:06:05.277Z,10.88
2018-05-03T02:07:05.251Z,10.91
2018-05-03T02:08:58.170Z,10.96
2018-05-03T02:09:58.137Z,10.91
2018-05-03T02:11:51.046Z,10.84
2018-05-03T02:12:51.006Z,10.80
2018-05-03T02:14:43.983Z,10.80
2018-05-03T02:15:43.954Z,10.83
2018-05-03T02:17:36.924Z,10.83
2018-05-03T02:18:36.895Z,10.80
2018-05-03T02:20:30.021Z,10.76
2018-05-03T02:21:29.987Z,10.74
2018-05-03T02:23:22.960Z,10.73
2018-05-03T02:24:22.929Z,10.74
2018-05-03T02:26:15.877Z,10.73
2018-05-03T02:27:15.862Z,10.70
2018-05-03T02:29:08.789Z,10.76
2018-05-03T02:30:08.762Z,10.70
2018-05-03T02:32:01.674Z,10.73
2018-05-03T02:33:01.662Z,10.71
2018-05-03T02:34:54.587Z,10.83
2018-05-03T02:35:54.561Z,10.71
2018-05-03T02:37:47.508Z,10.74
2018-05-03T02:38:47.483Z,10.74
2018-05-03T02:40:40.471Z,10.74
2018-05-03T02:41:40.436Z,10.71
2018-05-03T02:43:33.446Z,10.73
2018-05-03T02:44:33.416Z,10.84
2018-05-03T02:46:26.397Z,10.77
2018-05-03T02:47:26.349Z,10.74
2018-05-03T02:49:19.343Z,10.78
2018-05-03T02:50:19.310Z,10.74
2018-05-03T02:52:12.267Z,10.84
2018-05-03T02:53:12.235Z,10.78
2018-05-03T02:55:05.233Z,10.86
2018-05-03T02:56:05.199Z,10.78
2018-05-03T02:57:58.169Z,10.81
2018-05-03T02:58:58.144Z,10.80
2018-05-03T03:00:51.132Z,10.78
2018-05-03T03:01:51.104Z,10.78
2018-05-03T03:03:44.054Z,10.77
2018-05-03T03:04:44.002Z,10.77
2018-05-03T03:06:36.987Z,10.86
2018-05-03T03:07:36.981Z,10.83
2018-05-03T03:09:29.946Z,10.77
2018-05-03T03:10:29.914Z,10.78
2018-05-03T03:12:22.847Z,10.80
2018-05-03T03:13:22.810Z,10.84
2018-05-03T03:15:15.724Z,10.88
2018-05-03T03:16:15.692Z,10.78
2018-05-03T03:18:08.651Z,10.84
2018-05-03T03:19:08.622Z,10.95
2018-05-03T03:21:01.546Z,10.89
2018-05-03T03:22:01.605Z,10.89
2018-05-03T03:23:54.488Z,10.83
2018-05-03T03:24:54.459Z,10.86
2018-05-03T03:26:47.418Z,10.81
2018-05-03T03:27:47.392Z,10.88
2018-05-03T03:29:40.385Z,10.86
2018-05-03T03:30:40.356Z,10.88
2018-05-03T03:32:33.310Z,10.91
2018-05-03T03:33:33.300Z,10.83
2018-05-03T03:35:26.286Z,10.95
2018-05-03T03:36:26.257Z,10.96
2018-05-03T03:38:19.196Z,11.02
2018-05-03T03:39:19.171Z,10.95
2018-05-03T03:41:12.141Z,10.98
2018-05-03T03:42:12.091Z,10.92
2018-05-03T03:44:05.042Z,10.99
2018-05-03T03:45:05.034Z,11.02
2018-05-03T03:46:58.006Z,11.02
2018-05-03T03:47:57.964Z,11.01
2018-05-03T03:49:50.885Z,11.06
2018-05-03T03:50:50.861Z,10.99
2018-05-03T03:52:43.823Z,11.02
2018-05-03T03:53:43.797Z,11.07
2018-05-03T03:55:36.760Z,11.13
2018-05-03T03:56:36.729Z,11.06
2018-05-03T03:58:29.646Z,11.06
2018-05-03T03:59:29.640Z,11.06
2018-05-03T04:01:22.596Z,11.06
2018-05-03T04:02:22.565Z,11.09
2018-05-03T04:04:15.536Z,11.09
2018-05-03T04:05:15.522Z,11.06
2018-05-03T04:07:08.482Z,11.07
2018-05-03T04:08:08.457Z,11.09
2018-05-03T04:10:01.430Z,11.10
2018-05-03T04:11:01.404Z,10.99
2018-05-03T04:12:54.351Z,11.02
2018-05-03T04:13:54.315Z,11.09
2018-05-03T04:15:47.235Z,11.13
2018-05-03T04:16:47.218Z,11.03
2018-05-03T04:18:40.146Z,11.09
2018-05-03T04:19:40.118Z,11.09
2018-05-03T04:21:33.029Z,11.09
2018-05-03T04:22:33.169Z,11.10
2018-05-03T04:24:25.972Z,11.10
2018-05-03T04:25:25.899Z,11.09
2018-05-03T04:27:18.876Z,11.10
2018-05-03T04:28:18.819Z,11.13
2018-05-03T04:30:11.788Z,11.09
2018-05-03T04:31:11.767Z,11.14
2018-05-03T04:33:04.688Z,11.09
2018-05-03T04:34:04.654Z,11.10
2018-05-03T04:35:57.660Z,11.06
2018-05-03T04:36:57.635Z,11.10
2018-05-03T04:38:50.559Z,11.14
2018-05-03T04:39:50.529Z,11.13
2018-05-03T04:41:43.533Z,11.13
2018-05-03T04:42:43.451Z,11.09
2018-05-03T04:44:36.384Z,11.17
2018-05-03T04:45:36.367Z,11.14
2018-05-03T04:47:29.308Z,11.21
2018-05-03T04:48:29.271Z,11.19
2018-05-03T04:50:22.204Z,11.28
2018-05-03T04:51:22.172Z,11.28
2018-05-03T04:53:15.104Z,11.25
2018-05-03T04:54:15.084Z,11.31
2018-05-03T04:56:07.989Z,11.25
2018-05-03T04:57:07.968Z,11.28
2018-05-03T04:59:00.913Z,11.31
2018-05-03T05:00:00.888Z,11.21
2018-05-03T05:01:53.815Z,11.21
2018-05-03T05:02:53.796Z,11.17
2018-05-03T05:04:46.908Z,11.24
2018-05-03T05:05:46.815Z,11.20
2018-05-03T05:07:39.730Z,11.21
2018-05-03T05:08:39.717Z,11.24
2018-05-03T05:10:32.718Z,11.14
2018-05-03T05:11:32.643Z,11.14
2018-05-03T05:13:25.593Z,11.14
2018-05-03T05:14:25.563Z,11.14
2018-05-03T05:16:18.556Z,11.13
2018-05-03T05:17:18.547Z,11.10
2018-05-03T05:19:11.508Z,11.06
2018-05-03T05:20:11.480Z,11.03
2018-05-03T05:22:04.384Z,11.17
2018-05-03T05:23:04.362Z,11.14
2018-05-03T05:24:57.334Z,11.13
2018-05-03T05:25:57.313Z,11.13
2018-05-03T05:27:50.359Z,11.11
2018-05-03T05:28:50.331Z,11.16
2018-05-03T05:30:43.225Z,11.11
2018-05-03T05:31:43.135Z,11.14
2018-05-03T05:32:43.125Z,11.14
2018-05-03T05:33:43.124Z,11.07
2018-05-03T05:34:43.135Z,11.19
2018-05-03T05:35:43.115Z,11.20
2018-05-03T05:36:43.124Z,11.17
2018-05-03T05:37:43.109Z,11.28
2018-05-03T05:38:43.144Z,11.19
2018-05-03T05:39:43.088Z,11.24
2018-05-03T05:40:43.093Z,11.19
2018-05-03T05:41:43.085Z,11.17
2018-05-03T05:42:43.084Z,11.28
2018-05-03T05:43:43.135Z,11.31
2018-05-03T05:44:43.070Z,11.27
2018-05-03T05:45:43.083Z,11.27
2018-05-03T05:46:43.076Z,11.35
2018-05-03T05:47:43.056Z,11.32
2018-05-03T05:48:43.048Z,11.31
2018-05-03T05:49:43.052Z,11.31
2018-05-03T05:50:43.053Z,11.36
2018-05-03T05:51:43.047Z,11.44
2018-05-03T05:52:43.067Z,11.41
2018-05-03T05:53:43.031Z,11.39
2018-05-03T05:54:43.037Z,11.47
2018-05-03T05:55:43.029Z,11.47
2018-05-03T05:56:43.064Z,11.49
2018-05-03T05:57:43.017Z,11.56
2018-05-03T05:58:43.004Z,11.47
2018-05-03T05:59:42.999Z,11.54
2018-05-03T06:00:42.998Z,11.52
2018-05-03T06:01:43.001Z,11.57
2018-05-03T06:02:42.989Z,11.53
2018-05-03T06:03:43.063Z,11.52
2018-05-03T06:04:42.979Z,11.54
2018-05-03T06:05:42.977Z,11.54
2018-05-03T06:06:42.982Z,11.53
2018-05-03T06:07:42.964Z,11.62
2018-05-03T06:08:42.960Z,11.49
2018-05-03T06:09:42.957Z,11.50
2018-05-03T06:10:42.967Z,11.53
2018-05-03T06:11:42.951Z,11.61
2018-05-03T06:12:42.951Z,11.47
2018-05-03T06:13:43.697Z,11.52
2018-05-03T06:14:42.930Z,11.47
2018-05-03T06:15:42.941Z,11.61
2018-05-03T06:16:42.915Z,11.52
2018-05-03T06:17:42.926Z,11.53
2018-05-03T06:18:42.931Z,11.56
2018-05-03T06:19:42.927Z,11.53
2018-05-03T06:20:42.919Z,11.62
2018-05-03T06:21:42.901Z,11.62
2018-05-03T06:22:42.897Z,11.59
2018-05-03T06:23:42.893Z,11.56
2018-05-03T06:24:42.897Z,11.64
2018-05-03T06:25:42.876Z,11.53
2018-05-03T06:26:42.889Z,11.53
2018-05-03T06:27:43.701Z,11.57
2018-05-03T06:28:42.875Z,11.57
2018-05-03T06:29:42.868Z,11.64
2018-05-03T06:30:42.865Z,11.52
2018-05-03T06:31:42.857Z,11.56
2018-05-03T06:32:42.854Z,11.70
2018-05-03T06:33:42.856Z,11.59
2018-05-03T06:34:42.847Z,11.59
2018-05-03T06:35:42.832Z,11.61
2018-05-03T06:36:43.685Z,11.68
2018-05-03T06:37:42.828Z,11.68
2018-05-03T06:38:42.826Z,11.64
2018-05-03T06:39:42.816Z,11.72
2018-05-03T06:40:42.819Z,11.71
2018-05-03T06:41:42.825Z,11.71
2018-05-03T06:42:42.828Z,11.77
2018-05-03T06:43:42.819Z,11.86
2018-05-03T06:44:42.797Z,11.82
2018-05-03T06:45:43.706Z,11.82
2018-05-03T06:46:42.802Z,11.87
2018-05-03T06:47:42.790Z,11.78
2018-05-03T06:48:42.787Z,11.87
2018-05-03T06:49:42.797Z,11.96
2018-05-03T06:50:42.775Z,11.94
2018-05-03T06:51:42.777Z,11.90
2018-05-03T06:52:42.806Z,11.87
2018-05-03T06:53:42.768Z,11.96
2018-05-03T06:54:42.774Z,11.94
2018-05-03T06:55:42.791Z,11.93
2018-05-03T06:56:42.754Z,12.11
2018-05-03T06:57:42.758Z,12.13
2018-05-03T06:58:42.769Z,12.13
2018-05-03T06:59:42.773Z,12.04
2018-05-03T07:00:42.747Z,11.97
2018-05-03T07:01:42.740Z,12.12
2018-05-03T07:02:42.738Z,12.04
2018-05-03T07:03:42.736Z,11.97
2018-05-03T07:04:42.740Z,12.11
2018-05-03T07:05:42.737Z,12.13
2018-05-03T07:06:42.717Z,12.16
2018-05-03T07:07:42.708Z,12.05
2018-05-03T07:08:42.738Z,12.13
2018-05-03T07:09:42.711Z,12.12
2018-05-03T07:10:42.736Z,12.16
2018-05-03T07:11:42.707Z,12.16
2018-05-03T07:12:42.704Z,12.30
2018-05-03T07:13:42.704Z,12.27
2018-05-03T07:14:42.696Z,12.24
2018-05-03T07:15:42.692Z,12.27
2018-05-03T07:16:42.685Z,12.30
2018-05-03T07:17:42.686Z,12.33
2018-05-03T07:18:42.702Z,12.26
2018-05-03T07:19:42.676Z,12.37
2018-05-03T07:20:42.674Z,12.49
2018-05-03T07:21:42.706Z,12.31
2018-05-03T07:22:42.669Z,12.29
2018-05-03T07:23:42.683Z,12.44
2018-05-03T07:24:42.663Z,12.41
2018-05-03T07:25:42.659Z,12.39
2018-05-03T07:26:42.649Z,12.49
2018-05-03T07:27:42.656Z,12.51
2018-05-03T07:28:42.657Z,12.33
2018-05-03T07:29:42.644Z,12.38
2018-05-03T07:30:42.659Z,12.42
2018-05-03T07:31:42.663Z,12.52
2018-05-03T07:32:42.635Z,12.42
2018-05-03T07:33:42.635Z,12.49
2018-05-03T07:34:42.654Z,12.41
2018-05-03T07:35:42.630Z,12.54
2018-05-03T07:36:42.625Z,12.49
2018-05-03T07:37:42.623Z,12.38
2018-05-03T07:38:42.617Z,12.39
2018-05-03T07:39:42.613Z,12.54
2018-05-03T07:40:42.713Z,12.52
2018-05-03T07:41:42.637Z,12.56
2018-05-03T07:42:42.622Z,12.45
2018-05-03T07:43:42.610Z,12.51
2018-05-03T07:44:42.600Z,12.56
2018-05-03T07:45:42.599Z,12.41
2018-05-03T07:46:42.597Z,12.59
2018-05-03T07:47:42.580Z,12.54
2018-05-03T07:48:42.590Z,12.49
2018-05-03T07:49:42.586Z,12.54
2018-05-03T07:50:42.582Z,12.63
2018-05-03T07:51:42.590Z,12.82
2018-05-03T07:52:42.574Z,12.75
2018-05-03T07:53:42.576Z,12.81
2018-05-03T07:54:42.572Z,12.96
2018-05-03T07:55:43.226Z,12.84
2018-05-03T07:56:42.625Z,12.78
2018-05-03T07:57:42.553Z,12.67
2018-05-03T07:58:42.551Z,12.70
2018-05-03T07:59:42.554Z,12.78
2018-05-03T08:00:42.557Z,12.87
2018-05-03T08:01:42.553Z,12.74
2018-05-03T08:02:42.564Z,12.84
2018-05-03T08:03:42.635Z,12.85
2018-05-03T08:04:43.202Z,12.93
2018-05-03T08:05:42.640Z,12.85
2018-05-03T08:06:42.534Z,13.00
2018-05-03T08:07:42.536Z,12.97
2018-05-03T08:08:42.519Z,12.84
2018-05-03T08:09:42.531Z,12.88
2018-05-03T08:10:42.526Z,12.95
2018-05-03T08:11:42.526Z,12.99
2018-05-03T08:12:42.630Z,12.93
2018-05-03T08:13:42.537Z,12.89
2018-05-03T08:14:42.514Z,12.78
2018-05-03T08:15:42.503Z,12.71
2018-05-03T08:16:42.505Z,12.64
2018-05-03T08:17:42.509Z,12.60
2018-05-03T08:18:42.499Z,12.74
2018-05-03T08:19:42.505Z,12.74
2018-05-03T08:20:42.494Z,12.78
2018-05-03T08:21:42.516Z,12.69
2018-05-03T08:22:42.484Z,12.75
2018-05-03T08:23:42.493Z,12.85
2018-05-03T08:24:42.492Z,13.09
2018-05-03T08:25:42.485Z,13.27
2018-05-03T08:26:42.498Z,13.14
2018-05-03T08:27:42.489Z,13.06
2018-05-03T08:28:42.478Z,13.02
2018-05-03T08:29:43.792Z,13.12
2018-05-03T08:30:42.472Z,12.95
2018-05-03T08:31:42.480Z,13.04
2018-05-03T08:32:42.464Z,12.89
2018-05-03T08:33:42.467Z,13.22
2018-05-03T08:34:42.456Z,13.44
2018-05-03T08:35:42.470Z,13.32
2018-05-03T08:36:42.503Z,13.33
2018-05-03T08:37:42.454Z,13.32
2018-05-03T08:38:42.451Z,13.24
2018-05-03T08:39:43.142Z,13.18
2018-05-03T08:40:43.140Z,13.30
2018-05-03T08:41:43.146Z,13.29
2018-05-03T08:42:42.439Z,13.40
2018-05-03T08:43:42.454Z,13.38
2018-05-03T08:44:42.441Z,13.74
2018-05-03T08:45:42.424Z,13.69
2018-05-03T08:46:42.459Z,13.76
2018-05-03T08:47:42.428Z,13.88
2018-05-03T08:48:42.430Z,13.98
2018-05-03T08:49:42.432Z,14.09
2018-05-03T08:50:43.219Z,14.14
2018-05-03T08:51:42.430Z,14.16
2018-05-03T08:52:42.425Z,13.81
2018-05-03T08:53:42.428Z,13.74
2018-05-03T08:54:42.432Z,13.65
2018-05-03T08:55:42.502Z,13.74
2018-05-03T08:56:42.412Z,13.76
2018-05-03T08:57:42.415Z,13.80
2018-05-03T08:58:42.420Z,13.80
2018-05-03T08:59:42.419Z,13.87
2018-05-03T09:00:42.435Z,13.98
2018-05-03T09:01:42.417Z,13.89
2018-05-03T09:02:42.420Z,13.98
2018-05-03T09:03:42.421Z,13.70
2018-05-03T09:04:42.405Z,13.81
2018-05-03T09:05:42.406Z,13.63
2018-05-03T09:06:42.410Z,13.73
2018-05-03T09:07:42.480Z,13.79
2018-05-03T09:08:42.403Z,13.95
2018-05-03T09:09:42.407Z,14.09
2018-05-03T09:10:42.402Z,14.14
2018-05-03T09:11:42.404Z,14.16
2018-05-03T09:12:42.401Z,14.20
2018-05-03T09:13:42.391Z,14.53
2018-05-03T09:14:42.400Z,14.43
2018-05-03T09:15:42.401Z,14.65
2018-05-03T09:16:42.402Z,14.75
2018-05-03T09:17:42.393Z,15.05
2018-05-03T09:18:42.418Z,15.42
2018-05-03T09:19:42.395Z,15.48
2018-05-03T09:20:42.396Z,15.66
2018-05-03T09:21:42.399Z,15.79
2018-05-03T09:22:42.396Z,15.56
2018-05-03T09:23:42.394Z,15.36
2018-05-03T09:24:42.392Z,15.13
2018-05-03T09:25:42.428Z,15.43
2018-05-03T09:26:42.410Z,15.56
2018-05-03T09:27:42.411Z,15.57
2018-05-03T09:28:42.409Z,15.72
2018-05-03T09:29:42.403Z,16.23
2018-05-03T09:30:42.394Z,16.00
2018-05-03T09:31:42.405Z,16.09
2018-05-03T09:32:42.402Z,16.50
2018-05-03T09:33:43.223Z,16.48
2018-05-03T09:34:42.407Z,17.03
2018-05-03T09:35:42.415Z,16.77
2018-05-03T09:36:42.423Z,16.41
2018-05-03T09:37:42.424Z,16.06
2018-05-03T09:38:42.424Z,16.85
2018-05-03T09:39:42.439Z,16.92
2018-05-03T09:40:42.431Z,16.68
2018-05-03T09:41:42.438Z,16.86
2018-05-03T09:42:42.467Z,16.63
2018-05-03T09:43:43.230Z,16.41
2018-05-03T09:44:42.464Z,16.45
2018-05-03T09:45:42.478Z,16.65
2018-05-03T09:46:42.459Z,16.53
2018-05-03T09:47:42.480Z,16.53
2018-05-03T09:48:42.470Z,16.38
2018-05-03T09:49:42.498Z,16.63
2018-05-03T09:50:42.485Z,17.15
2018-05-03T09:51:42.473Z,17.14
2018-05-03T09:52:42.492Z,16.92
2018-05-03T09:53:42.486Z,16.75
2018-05-03T09:54:42.504Z,16.65
2018-05-03T09:55:42.507Z,16.59
2018-05-03T09:56:42.518Z,16.75
2018-05-03T09:57:42.513Z,16.73
2018-05-03T09:58:43.232Z,16.95
2018-05-03T09:59:42.533Z,17.33
2018-05-03T10:00:42.528Z,17.25
2018-05-03T10:01:42.540Z,16.73
2018-05-03T10:02:42.540Z,17.04
2018-05-03T10:03:42.550Z,17.30
2018-05-03T10:04:42.559Z,17.10
2018-05-03T10:05:42.567Z,17.41
2018-05-03T10:06:42.570Z,18.15
2018-05-03T10:07:42.583Z,18.62
2018-05-03T10:08:42.585Z,18.58
2018-05-03T10:09:42.597Z,19.63
2018-05-03T10:10:42.596Z,20.23
2018-05-03T10:11:42.611Z,19.05
2018-05-03T10:12:42.615Z,19.76
2018-05-03T10:13:42.627Z,20.30
2018-05-03T10:14:43.313Z,20.42
2018-05-03T10:15:42.646Z,21.04
2018-05-03T10:16:42.664Z,20.51
2018-05-03T10:17:42.669Z,20.53
2018-05-03T10:18:42.687Z,21.27
2018-05-03T10:19:42.696Z,20.79
2018-05-03T10:20:42.707Z,20.76
2018-05-03T10:21:42.719Z,22.02
2018-05-03T10:22:42.738Z,20.62
2018-05-03T10:23:42.745Z,20.08
2018-05-03T10:24:42.770Z,19.28
2018-05-03T10:25:42.786Z,18.27
2018-05-03T10:26:42.774Z,18.03
2018-05-03T10:27:42.796Z,18.65
2018-05-03T10:28:42.806Z,18.22
2018-05-03T10:29:42.811Z,18.91
2018-05-03T10:30:42.825Z,19.38
2018-05-03T10:31:42.845Z,19.57
2018-05-03T10:32:42.855Z,20.20
2018-05-03T10:33:42.866Z,20.64
2018-05-03T10:34:43.764Z,21.34
2018-05-03T10:35:42.912Z,22.13
2018-05-03T10:36:42.906Z,21.35
2018-05-03T10:37:42.936Z,20.56
2018-05-03T10:38:42.944Z,19.95
2018-05-03T10:39:42.933Z,19.73
2018-05-03T10:40:42.955Z,20.12
2018-05-03T10:41:42.979Z,20.15
2018-05-03T10:42:42.983Z,19.95
2018-05-03T10:43:43.669Z,19.08
2018-05-03T10:44:43.670Z,18.31
2018-05-03T10:45:43.672Z,18.02
2018-05-03T10:46:43.034Z,18.79
2018-05-03T10:47:43.046Z,19.25
2018-05-03T10:48:43.052Z,20.12
2018-05-03T10:49:43.069Z,19.39
2018-05-03T10:50:43.079Z,18.54
2018-05-03T10:51:43.098Z,18.43
2018-05-03T10:52:43.107Z,18.12
2018-05-03T10:53:43.117Z,18.15
2018-05-03T10:54:43.116Z,18.22
2018-05-03T10:55:43.129Z,18.52
2018-05-03T10:56:43.135Z,18.64
2018-05-03T10:57:43.145Z,18.73
2018-05-03T10:58:43.157Z,18.82
2018-05-03T10:59:43.175Z,18.77
2018-05-03T11:00:43.176Z,18.55
2018-05-03T11:01:43.183Z,18.92
2018-05-03T11:02:43.184Z,18.28
2018-05-03T11:03:43.204Z,18.15
2018-05-03T11:04:43.215Z,17.79
2018-05-03T11:05:43.221Z,18.13
2018-05-03T11:06:43.232Z,18.49
2018-05-03T11:07:43.238Z,19.17
2018-05-03T11:08:43.246Z,19.15
2018-05-03T11:09:43.259Z,19.42
2018-05-03T11:10:43.263Z,19.28
2018-05-03T11:11:43.267Z,19.35
2018-05-03T11:12:43.280Z,18.95
2018-05-03T11:13:43.311Z,19.32
2018-05-03T11:14:43.312Z,18.87
2018-05-03T11:15:43.313Z,18.67
2018-05-03T11:16:43.406Z,18.36
2018-05-03T11:17:43.320Z,18.28
2018-05-03T11:18:43.332Z,18.49
2018-05-03T11:19:43.409Z,18.49
2018-05-03T11:20:43.344Z,18.83
2018-05-03T11:21:43.349Z,19.18
2018-05-03T11:22:43.365Z,19.17
2018-05-03T11:23:43.361Z,18.83
2018-05-03T11:24:43.368Z,18.86
2018-05-03T11:25:43.383Z,18.06
2018-05-03T11:26:43.383Z,18.34
2018-05-03T11:27:43.389Z,18.62
2018-05-03T11:28:43.410Z,19.01
2018-05-03T11:29:43.403Z,19.40
2018-05-03T11:30:43.425Z,19.29
2018-05-03T11:31:43.428Z,18.82
2018-05-03T11:32:43.427Z,18.36
2018-05-03T11:33:43.441Z,18.27
2018-05-03T11:34:43.436Z,18.57
2018-05-03T11:35:43.447Z,18.64
2018-05-03T11:36:43.568Z,18.34
2018-05-03T11:37:43.467Z,18.76
2018-05-03T11:38:43.465Z,19.02
2018-05-03T11:39:43.488Z,18.50
2018-05-03T11:40:43.473Z,18.52
2018-05-03T11:41:43.486Z,18.50
2018-05-03T11:42:43.500Z,18.67
2018-05-03T11:43:43.504Z,18.86
2018-05-03T11:44:43.536Z,18.50
2018-05-03T11:45:43.512Z,18.47
2018-05-03T11:46:43.521Z,18.61
2018-05-03T11:47:43.517Z,18.86
2018-05-03T11:48:43.609Z,18.84
2018-05-03T11:49:43.532Z,18.95
2018-05-03T11:50:43.558Z,18.72
2018-05-03T11:51:43.546Z,18.70
2018-05-03T11:52:43.558Z,18.86
2018-05-03T11:53:43.574Z,19.06
2018-05-03T11:54:43.567Z,19.58
2018-05-03T11:55:43.589Z,19.46
2018-05-03T11:56:43.585Z,19.05
2018-05-03T11:57:43.589Z,18.70
2018-05-03T11:58:43.598Z,18.90
2018-05-03T11:59:43.626Z,18.95
2018-05-03T12:00:43.641Z,18.80
2018-05-03T12:01:43.615Z,18.77
2018-05-03T12:02:43.636Z,19.13
2018-05-03T12:03:43.649Z,19.33
2018-05-03T12:04:43.654Z,19.42
2018-05-03T12:05:43.650Z,19.63
2018-05-03T12:06:43.656Z,19.65
2018-05-03T12:07:43.666Z,19.08
2018-05-03T12:08:43.664Z,18.76
2018-05-03T12:09:43.678Z,19.01
2018-05-03T12:10:43.696Z,18.99
2018-05-03T12:11:43.726Z,19.18
2018-05-03T12:12:43.711Z,18.54
2018-05-03T12:13:43.700Z,18.22
2018-05-03T12:14:43.728Z,18.54
2018-05-03T12:15:43.734Z,18.61
2018-05-03T12:16:43.740Z,18.73
2018-05-03T12:17:43.744Z,18.54
2018-05-03T12:18:43.732Z,19.08
2018-05-03T12:19:43.738Z,18.80
2018-05-03T12:20:43.756Z,18.47
2018-05-03T12:21:43.758Z,18.49
2018-05-03T12:22:43.776Z,18.17
2018-05-03T12:23:43.774Z,18.37
2018-05-03T12:24:43.789Z,18.77
2018-05-03T12:25:43.776Z,18.82
2018-05-03T12:26:43.773Z,18.91
2018-05-03T12:27:43.780Z,18.91
2018-05-03T12:28:43.782Z,18.80
2018-05-03T12:29:43.788Z,18.54
2018-05-03T12:30:43.809Z,18.65
2018-05-03T12:31:43.799Z,18.64
2018-05-03T12:32:43.805Z,18.44
2018-05-03T12:33:43.821Z,18.12
2018-05-03T12:34:43.817Z,18.12
2018-05-03T12:35:43.822Z,18.13
2018-05-03T12:36:43.832Z,17.95
2018-05-03T12:37:43.833Z,18.17
2018-05-03T12:38:43.862Z,18.12
2018-05-03T12:39:43.839Z,17.70
2018-05-03T12:40:43.845Z,17.88
2018-05-03T12:41:43.850Z,18.03
2018-05-03T12:42:43.855Z,18.10
2018-05-03T12:43:43.879Z,18.25
2018-05-03T12:44:43.907Z,18.37
2018-05-03T12:45:43.875Z,18.54
2018-05-03T12:46:43.884Z,18.98
2018-05-03T12:47:43.874Z,19.13
2018-05-03T12:48:43.880Z,19.17
2018-05-03T12:49:43.900Z,18.59
2018-05-03T12:50:43.891Z,18.44
2018-05-03T12:51:43.935Z,18.50
2018-05-03T12:52:43.905Z,18.50
2018-05-03T12:53:43.910Z,18.42
2018-05-03T12:54:43.910Z,18.34
2018-05-03T12:55:43.909Z,18.07
2018-05-03T12:56:43.917Z,17.87
2018-05-03T12:57:43.923Z,18.06
2018-05-03T12:58:43.934Z,18.25
2018-05-03T12:59:43.915Z,18.40
2018-05-03T13:00:44.002Z,18.57
2018-05-03T13:01:43.929Z,18.09
2018-05-03T13:02:43.936Z,18.13
2018-05-03T13:03:43.931Z,17.91
2018-05-03T13:04:43.943Z,18.17
2018-05-03T13:05:43.944Z,18.25
2018-05-03T13:06:43.947Z,18.34
2018-05-03T13:07:43.956Z,18.49
2018-05-03T13:08:43.953Z,18.25
2018-05-03T13:09:43.960Z,18.31
2018-05-03T13:10:43.974Z,18.47
2018-05-03T13:11:43.968Z,18.49
2018-05-03T13:12:43.973Z,18.40
2018-05-03T13:13:43.985Z,18.47
2018-05-03T13:14:43.992Z,18.61
2018-05-03T13:15:43.990Z,18.43
2018-05-03T13:16:44.006Z,18.52
2018-05-03T13:17:43.991Z,18.36
2018-05-03T13:18:43.993Z,18.21
2018-05-03T13:19:43.986Z,17.85
2018-05-03T13:20:44.001Z,17.95
2018-05-03T13:21:44.007Z,18.24
2018-05-03T13:22:44.017Z,18.06
2018-05-03T13:23:44.013Z,17.97
2018-05-03T13:24:44.015Z,17.89
2018-05-03T13:25:44.023Z,17.92
2018-05-03T13:26:44.027Z,17.76
2018-05-03T13:27:44.040Z,18.15
2018-05-03T13:28:44.029Z,18.07
2018-05-03T13:29:44.032Z,18.12
2018-05-03T13:30:44.052Z,18.24
2018-05-03T13:31:44.043Z,18.43
2018-05-03T13:32:44.045Z,18.43
2018-05-03T13:33:44.031Z,18.25
2018-05-03T13:34:44.036Z,18.44
2018-05-03T13:35:44.050Z,18.44
2018-05-03T13:36:44.079Z,18.42
2018-05-03T13:37:44.052Z,18.43
2018-05-03T13:38:44.054Z,18.09
2018-05-03T13:39:44.059Z,18.46
2018-05-03T13:40:44.063Z,18.40
2018-05-03T13:41:44.060Z,18.25
2018-05-03T13:42:44.060Z,18.25
2018-05-03T13:43:44.092Z,18.19
2018-05-03T13:44:44.080Z,18.46
2018-05-03T13:45:44.066Z,18.44
2018-05-03T13:46:44.070Z,18.34
2018-05-03T13:47:44.095Z,18.33
2018-05-03T13:48:44.069Z,18.43
2018-05-03T13:49:44.088Z,18.49
2018-05-03T13:50:44.075Z,18.28
2018-05-03T13:51:44.070Z,18.67
2018-05-03T13:52:44.158Z,18.74
2018-05-03T13:53:44.077Z,18.94
2018-05-03T13:54:44.068Z,19.23
2018-05-03T13:55:44.079Z,18.90
2018-05-03T13:56:44.086Z,18.77
2018-05-03T13:57:44.081Z,18.61
2018-05-03T13:58:44.079Z,18.33
2018-05-03T13:59:44.079Z,18.44
2018-05-03T14:00:44.090Z,18.42
2018-05-03T14:01:44.088Z,18.49
2018-05-03T14:02:44.082Z,18.40
2018-05-03T14:03:44.144Z,18.29
2018-05-03T14:04:44.094Z,18.36
2018-05-03T14:05:44.101Z,18.40
2018-05-03T14:06:44.122Z,18.50
2018-05-03T14:07:44.090Z,18.49
2018-05-03T14:08:44.098Z,18.33
2018-05-03T14:09:44.098Z,18.37
2018-05-03T14:10:44.119Z,18.28
2018-05-03T14:11:44.101Z,18.76
2018-05-03T14:12:44.103Z,18.77
2018-05-03T14:13:44.112Z,18.77
2018-05-03T14:14:44.106Z,18.98
2018-05-03T14:15:44.129Z,19.24
2018-05-03T14:16:44.114Z,19.17
2018-05-03T14:17:44.106Z,19.38
2018-05-03T14:18:44.121Z,19.05
2018-05-03T14:19:44.119Z,19.18
2018-05-03T14:20:44.111Z,19.43
2018-05-03T14:21:44.113Z,19.65
2018-05-03T14:22:44.117Z,19.46
2018-05-03T14:23:44.147Z,19.23
2018-05-03T14:24:44.120Z,19.31
2018-05-03T14:25:44.114Z,19.25
2018-05-03T14:26:44.145Z,18.92
2018-05-03T14:27:44.144Z,18.82
2018-05-03T14:28:44.125Z,18.50